Terminal Aerodrome Forecast
Issued by NWS Jackson, MS

Home | Current Version | Previous Version | Text Only | Print | Product List | Glossary On
Versions: 1 2 3 4 5 6 7 8 9 10 11 12 13 14 15 16
000
FTUS44 KJAN 280133 AAA
TAFGWO
TAF AMD
KGWO 280133Z 2802/2824 19010KT P6SM BKN012 BKN022 OVC045
     FM280300 19005KT P6SM SCT020 BKN050
     FM280700 19005KT P6SM SCT005 BKN015 OVC025
     FM281100 20005KT 5SM BR OVC008
     FM281500 22008KT P6SM VCSH BKN015
     FM281700 25010KT P6SM VCTS SCT025 BKN035CB
     FM282100 26007KT P6SM FEW030 BKN100=

USA.gov is the U.S. government's official web portal to all federal, state and local government web resources and services.